Pagrindinis puslapis
METAR-TAF:

METAR-TAF

Oro uostai :

Otis Air National Guard Base

Falmouth, Masačusetsas, Jungtinės Amerikos Valstijos

platuma: 41-39N, ilguma: 070-31W, Aukštis: 40 m

Dabartinis oras

Ataskaita buvo paskelbta 38 minutes, ne 06:45 UTC
Vėjas 22 kt iš Vakarų su gūsio iki 33 kt
Temperatūra -1°C
Drėgmė 36%
Slėgis 1006 hPa
Matomumas: 16.1 km
Mažai debesys ne aukštis 5000 ft

METAR: KFMH 280645Z 26022G33KT 10SM FEW050 M01/M14 A2971

Laikas: 02:23 (07:23 UTC)

Prognozė

Ataskaita buvo paskelbta 1 valandą ir 59 minutes, ne 05:24 UTC
Prognozė galioja nuo 28 metu 06 UTC su 29 metu 06 UTC
Vėjas 20 kt iš Vakarų su gūsio iki 30 kt
Matomumas: 10 km
Išsisklaidę debesys ne aukštis 5000 ft
Nuo 29 metu 0200 UTC
Vėjas 9 kt iš Vakarų
Matomumas: 10 km
Išsisklaidę debesys ne aukštis 7000 ft

TAF: KFMH 280524Z 2806/2906 26020G30KT P6SM SCT050 FM290200 26009KT P6SM SCT070

Orai ataskaitas ir orų prognozės (METAR, TAF).

turimą stotys yra geltonos ir raudonos taškus žemėlapyje.

Perkelti pele per norėdami pamatyti stoties vardą.

Tada spustelėkite, norėdami matyti oro stebėjimo ir prognozės.

Norėdami pakeisti žemėlapį: spustelėkite ant žalios mygtukų su juodo kryžiaus žemyn,; žalią mygtuką su brūkšneliu, jei norite nutolinti; arba žalių rodyklių gretimoms žemėlapius.


METAR-TAF: